sensor_id;sensor_type;location;lat;lon;timestamp;pressure;altitude;pressure_sealevel;temperature;humidity
16777;BME280;8505;49.456;8.164;2023-03-30T00:01:41;99199.97;;;16.86;50.29
16777;BME280;8505;49.456;8.164;2023-03-30T00:04:09;99199.13;;;16.86;50.43
16777;BME280;8505;49.456;8.164;2023-03-30T00:06:37;99191.78;;;16.81;50.18
16777;BME280;8505;49.456;8.164;2023-03-30T00:09:07;99195.06;;;16.83;50.55
16777;BME280;8505;49.456;8.164;2023-03-30T00:11:35;99192.31;;;16.90;50.07
16777;BME280;8505;49.456;8.164;2023-03-30T00:14:03;99190.25;;;16.74;50.82
16777;BME280;8505;49.456;8.164;2023-03-30T00:16:31;99190.16;;;16.80;50.49
16777;BME280;8505;49.456;8.164;2023-03-30T00:19:00;99187.69;;;16.79;50.46
16777;BME280;8505;49.456;8.164;2023-03-30T00:21:27;99184.81;;;16.80;50.47
16777;BME280;8505;49.456;8.164;2023-03-30T00:23:55;99198.59;;;16.66;50.87
16777;BME280;8505;49.456;8.164;2023-03-30T00:26:23;99189.59;;;16.78;50.09
16777;BME280;8505;49.456;8.164;2023-03-30T00:28:50;99191.06;;;16.74;50.43
16777;BME280;8505;49.456;8.164;2023-03-30T00:31:18;99199.22;;;16.79;49.94
16777;BME280;8505;49.456;8.164;2023-03-30T00:33:46;99198.41;;;16.79;50.16
16777;BME280;8505;49.456;8.164;2023-03-30T00:36:15;99186.97;;;16.90;49.54
16777;BME280;8505;49.456;8.164;2023-03-30T00:38:43;99175.84;;;17.05;49.16
16777;BME280;8505;49.456;8.164;2023-03-30T00:41:12;99171.78;;;17.02;49.32
16777;BME280;8505;49.456;8.164;2023-03-30T00:44:00;99179.13;;;17.07;49.26
16777;BME280;8505;49.456;8.164;2023-03-30T00:46:29;99184.56;;;17.00;49.63
16777;BME280;8505;49.456;8.164;2023-03-30T00:49:00;99178.38;;;16.99;49.44
16777;BME280;8505;49.456;8.164;2023-03-30T00:51:31;99162.06;;;16.89;49.83
16777;BME280;8505;49.456;8.164;2023-03-30T00:54:02;99177.91;;;16.91;49.81
16777;BME280;8505;49.456;8.164;2023-03-30T00:56:33;99172.22;;;16.99;49.65
16777;BME280;8505;49.456;8.164;2023-03-30T00:59:01;99179.81;;;17.02;49.38
16777;BME280;8505;49.456;8.164;2023-03-30T01:01:30;99174.38;;;17.09;49.00
16777;BME280;8505;49.456;8.164;2023-03-30T01:04:06;99187.22;;;17.00;49.55
16777;BME280;8505;49.456;8.164;2023-03-30T01:06:36;99182.53;;;17.14;49.07
16777;BME280;8505;49.456;8.164;2023-03-30T01:09:05;99188.34;;;17.22;48.85
16777;BME280;8505;49.456;8.164;2023-03-30T01:11:33;99188.25;;;17.29;48.80
16777;BME280;8505;49.456;8.164;2023-03-30T01:14:04;99196.28;;;17.29;48.78
16777;BME280;8505;49.456;8.164;2023-03-30T01:16:39;99201.88;;;17.27;48.96
16777;BME280;8505;49.456;8.164;2023-03-30T01:19:39;99184.66;;;17.35;48.56
16777;BME280;8505;49.456;8.164;2023-03-30T01:22:26;99167.13;;;17.39;48.47
16777;BME280;8505;49.456;8.164;2023-03-30T01:25:39;99163.28;;;17.47;48.04
16777;BME280;8505;49.456;8.164;2023-03-30T01:28:24;99176.91;;;17.45;48.45
16777;BME280;8505;49.456;8.164;2023-03-30T01:31:22;99194.63;;;17.46;48.38
16777;BME280;8505;49.456;8.164;2023-03-30T01:34:12;99185.06;;;17.50;48.41
16777;BME280;8505;49.456;8.164;2023-03-30T01:37:05;99188.44;;;17.46;48.78
16777;BME280;8505;49.456;8.164;2023-03-30T01:39:41;99180.63;;;17.44;48.59
16777;BME280;8505;49.456;8.164;2023-03-30T01:42:18;99182.28;;;17.45;49.01
16777;BME280;8505;49.456;8.164;2023-03-30T01:44:54;99185.50;;;17.47;49.01
16777;BME280;8505;49.456;8.164;2023-03-30T01:47:30;99191.34;;;17.44;49.08
16777;BME280;8505;49.456;8.164;2023-03-30T01:50:03;99195.88;;;17.44;49.16
16777;BME280;8505;49.456;8.164;2023-03-30T01:52:36;99202.97;;;17.38;49.48
16777;BME280;8505;49.456;8.164;2023-03-30T01:55:11;99204.72;;;17.44;49.28
16777;BME280;8505;49.456;8.164;2023-03-30T01:57:44;99209.56;;;17.35;49.79
16777;BME280;8505;49.456;8.164;2023-03-30T02:00:16;99208.31;;;17.38;50.82
16777;BME280;8505;49.456;8.164;2023-03-30T02:02:49;99214.53;;;17.20;53.73
16777;BME280;8505;49.456;8.164;2023-03-30T02:05:21;99191.34;;;16.84;56.21
16777;BME280;8505;49.456;8.164;2023-03-30T02:07:52;99167.72;;;16.81;57.34
16777;BME280;8505;49.456;8.164;2023-03-30T02:10:26;99150.72;;;16.57;58.62
16777;BME280;8505;49.456;8.164;2023-03-30T02:12:56;99159.72;;;16.45;59.62
16777;BME280;8505;49.456;8.164;2023-03-30T02:15:29;99164.31;;;16.19;61.68
16777;BME280;8505;49.456;8.164;2023-03-30T02:18:00;99184.41;;;16.04;62.25
16777;BME280;8505;49.456;8.164;2023-03-30T02:20:28;99201.63;;;15.83;63.63
16777;BME280;8505;49.456;8.164;2023-03-30T02:22:57;99213.03;;;15.72;63.65
16777;BME280;8505;49.456;8.164;2023-03-30T02:25:26;99219.81;;;15.68;63.66
16777;BME280;8505;49.456;8.164;2023-03-30T02:27:55;99222.88;;;15.71;63.50
16777;BME280;8505;49.456;8.164;2023-03-30T02:30:22;99207.28;;;15.68;64.32
16777;BME280;8505;49.456;8.164;2023-03-30T02:32:52;99196.34;;;15.76;63.87
16777;BME280;8505;49.456;8.164;2023-03-30T02:35:49;99188.72;;;15.80;64.18
16777;BME280;8505;49.456;8.164;2023-03-30T02:38:47;99192.03;;;15.75;64.79
16777;BME280;8505;49.456;8.164;2023-03-30T02:44:20;99208.66;;;15.53;66.31
16777;BME280;8505;49.456;8.164;2023-03-30T02:47:01;99223.03;;;15.45;67.05
16777;BME280;8505;49.456;8.164;2023-03-30T02:49:46;99231.34;;;15.30;67.76
16777;BME280;8505;49.456;8.164;2023-03-30T02:52:27;99216.34;;;15.36;66.47
16777;BME280;8505;49.456;8.164;2023-03-30T02:55:15;99207.06;;;15.38;66.91
16777;BME280;8505;49.456;8.164;2023-03-30T02:57:53;99206.22;;;15.45;66.23
16777;BME280;8505;49.456;8.164;2023-03-30T03:00:29;99205.44;;;15.37;67.08
16777;BME280;8505;49.456;8.164;2023-03-30T03:03:05;99189.91;;;15.28;67.72
16777;BME280;8505;49.456;8.164;2023-03-30T03:05:36;99190.56;;;15.23;68.00
16777;BME280;8505;49.456;8.164;2023-03-30T03:08:04;99189.38;;;15.13;68.12
16777;BME280;8505;49.456;8.164;2023-03-30T03:10:32;99174.09;;;15.26;67.58
16777;BME280;8505;49.456;8.164;2023-03-30T03:13:03;99171.97;;;15.10;68.83
16777;BME280;8505;49.456;8.164;2023-03-30T03:15:31;99160.69;;;15.08;68.57
16777;BME280;8505;49.456;8.164;2023-03-30T03:17:58;99157.13;;;15.21;68.06
16777;BME280;8505;49.456;8.164;2023-03-30T03:20:26;99150.88;;;15.33;67.39
16777;BME280;8505;49.456;8.164;2023-03-30T03:22:56;99162.19;;;15.29;67.40
16777;BME280;8505;49.456;8.164;2023-03-30T03:25:23;99146.56;;;15.32;67.80
16777;BME280;8505;49.456;8.164;2023-03-30T03:27:51;99149.22;;;15.32;67.17
16777;BME280;8505;49.456;8.164;2023-03-30T03:30:20;99147.78;;;15.36;66.97
16777;BME280;8505;49.456;8.164;2023-03-30T03:32:48;99138.16;;;15.35;66.52
16777;BME280;8505;49.456;8.164;2023-03-30T03:35:16;99128.09;;;15.31;66.92
16777;BME280;8505;49.456;8.164;2023-03-30T03:37:44;99120.72;;;15.33;67.00
16777;BME280;8505;49.456;8.164;2023-03-30T03:40:12;99122.97;;;15.36;66.92
16777;BME280;8505;49.456;8.164;2023-03-30T03:42:40;99114.75;;;15.31;67.32
16777;BME280;8505;49.456;8.164;2023-03-30T03:45:08;99107.88;;;15.23;67.66
16777;BME280;8505;49.456;8.164;2023-03-30T03:47:37;99110.53;;;15.23;67.93
16777;BME280;8505;49.456;8.164;2023-03-30T03:50:06;99105.34;;;15.28;67.55
16777;BME280;8505;49.456;8.164;2023-03-30T03:52:35;99104.75;;;15.26;67.73
16777;BME280;8505;49.456;8.164;2023-03-30T03:55:04;99109.56;;;15.18;67.80
16777;BME280;8505;49.456;8.164;2023-03-30T03:57:33;99107.44;;;14.95;68.95
16777;BME280;8505;49.456;8.164;2023-03-30T04:00:03;99104.69;;;15.08;68.83
16777;BME280;8505;49.456;8.164;2023-03-30T04:02:42;99099.97;;;15.10;68.43
16777;BME280;8505;49.456;8.164;2023-03-30T04:05:10;99096.88;;;15.07;68.66
16777;BME280;8505;49.456;8.164;2023-03-30T04:07:38;99104.63;;;15.15;68.48
16777;BME280;8505;49.456;8.164;2023-03-30T04:10:12;99097.72;;;15.07;67.94
16777;BME280;8505;49.456;8.164;2023-03-30T04:12:41;99090.59;;;14.94;68.23
16777;BME280;8505;49.456;8.164;2023-03-30T04:15:09;99085.94;;;14.90;67.69
16777;BME280;8505;49.456;8.164;2023-03-30T04:17:37;99095.03;;;14.76;68.18
16777;BME280;8505;49.456;8.164;2023-03-30T04:20:07;99108.63;;;14.68;68.65
16777;BME280;8505;49.456;8.164;2023-03-30T04:22:37;99105.38;;;14.59;68.72
16777;BME280;8505;49.456;8.164;2023-03-30T04:25:08;99090.03;;;14.54;69.23
16777;BME280;8505;49.456;8.164;2023-03-30T04:27:37;99089.88;;;14.49;69.94
16777;BME280;8505;49.456;8.164;2023-03-30T04:30:09;99090.84;;;14.55;70.46
16777;BME280;8505;49.456;8.164;2023-03-30T04:32:37;99100.72;;;14.48;71.64
16777;BME280;8505;49.456;8.164;2023-03-30T04:35:08;99102.97;;;14.44;72.19
16777;BME280;8505;49.456;8.164;2023-03-30T04:37:36;99095.84;;;14.38;72.46
16777;BME280;8505;49.456;8.164;2023-03-30T04:40:08;99087.50;;;14.15;72.30
16777;BME280;8505;49.456;8.164;2023-03-30T04:42:37;99080.09;;;14.24;72.76
16777;BME280;8505;49.456;8.164;2023-03-30T04:45:07;99078.81;;;14.39;72.47
16777;BME280;8505;49.456;8.164;2023-03-30T04:47:35;99082.91;;;14.48;72.40
16777;BME280;8505;49.456;8.164;2023-03-30T04:50:04;99082.97;;;14.22;73.42
16777;BME280;8505;49.456;8.164;2023-03-30T04:52:33;99093.34;;;13.72;75.55
16777;BME280;8505;49.456;8.164;2023-03-30T04:55:01;99097.16;;;14.09;74.43
16777;BME280;8505;49.456;8.164;2023-03-30T04:57:29;99091.00;;;14.09;74.53
16777;BME280;8505;49.456;8.164;2023-03-30T04:59:56;99091.31;;;13.81;75.33
16777;BME280;8505;49.456;8.164;2023-03-30T05:02:24;99097.78;;;14.05;75.04
16777;BME280;8505;49.456;8.164;2023-03-30T05:04:52;99104.38;;;13.89;76.17
16777;BME280;8505;49.456;8.164;2023-03-30T05:07:20;99116.63;;;14.03;75.61
16777;BME280;8505;49.456;8.164;2023-03-30T05:09:49;99114.16;;;14.02;75.66
16777;BME280;8505;49.456;8.164;2023-03-30T05:12:18;99121.13;;;14.03;75.69
16777;BME280;8505;49.456;8.164;2023-03-30T05:14:46;99130.13;;;14.08;75.09
16777;BME280;8505;49.456;8.164;2023-03-30T05:17:14;99138.13;;;14.02;75.33
16777;BME280;8505;49.456;8.164;2023-03-30T05:19:42;99134.91;;;13.73;76.35
16777;BME280;8505;49.456;8.164;2023-03-30T05:22:10;99132.25;;;13.73;77.09
16777;BME280;8505;49.456;8.164;2023-03-30T05:24:38;99142.88;;;13.80;76.37
16777;BME280;8505;49.456;8.164;2023-03-30T05:27:07;99147.38;;;13.73;77.38
16777;BME280;8505;49.456;8.164;2023-03-30T05:29:35;99186.28;;;13.61;78.25
16777;BME280;8505;49.456;8.164;2023-03-30T05:32:02;99217.19;;;13.55;78.81
16777;BME280;8505;49.456;8.164;2023-03-30T05:34:30;99226.81;;;13.69;78.20
16777;BME280;8505;49.456;8.164;2023-03-30T05:36:58;99237.47;;;13.76;77.97
16777;BME280;8505;49.456;8.164;2023-03-30T05:39:26;99226.19;;;13.54;80.69
16777;BME280;8505;49.456;8.164;2023-03-30T05:41:54;99223.31;;;13.49;81.25
16777;BME280;8505;49.456;8.164;2023-03-30T05:44:23;99222.28;;;13.37;82.50
16777;BME280;8505;49.456;8.164;2023-03-30T05:46:51;99226.75;;;13.30;83.05
16777;BME280;8505;49.456;8.164;2023-03-30T05:49:19;99226.13;;;13.28;83.42
16777;BME280;8505;49.456;8.164;2023-03-30T05:51:47;99225.50;;;13.13;84.14
16777;BME280;8505;49.456;8.164;2023-03-30T05:54:15;99221.34;;;13.10;84.92
16777;BME280;8505;49.456;8.164;2023-03-30T05:56:42;99219.31;;;13.06;85.05
16777;BME280;8505;49.456;8.164;2023-03-30T05:59:10;99221.81;;;13.14;85.22
16777;BME280;8505;49.456;8.164;2023-03-30T06:01:40;99224.63;;;13.06;85.18
16777;BME280;8505;49.456;8.164;2023-03-30T06:04:08;99222.16;;;13.04;85.44
16777;BME280;8505;49.456;8.164;2023-03-30T06:06:36;99220.31;;;13.05;85.86
16777;BME280;8505;49.456;8.164;2023-03-30T06:09:04;99236.66;;;12.95;85.77
16777;BME280;8505;49.456;8.164;2023-03-30T06:11:32;99229.25;;;12.90;86.37
16777;BME280;8505;49.456;8.164;2023-03-30T06:14:00;99241.34;;;12.93;86.33
16777;BME280;8505;49.456;8.164;2023-03-30T06:16:28;99237.41;;;12.82;85.72
16777;BME280;8505;49.456;8.164;2023-03-30T06:18:58;99237.19;;;12.84;84.90
16777;BME280;8505;49.456;8.164;2023-03-30T06:21:26;99227.75;;;12.68;85.00
16777;BME280;8505;49.456;8.164;2023-03-30T06:23:54;99217.72;;;12.64;84.54
16777;BME280;8505;49.456;8.164;2023-03-30T06:26:21;99213.19;;;12.57;85.25
16777;BME280;8505;49.456;8.164;2023-03-30T06:28:49;99200.88;;;12.50;85.19
16777;BME280;8505;49.456;8.164;2023-03-30T06:31:17;99192.69;;;12.45;85.93
16777;BME280;8505;49.456;8.164;2023-03-30T06:33:45;99180.03;;;12.40;84.62
16777;BME280;8505;49.456;8.164;2023-03-30T06:36:14;99177.97;;;12.42;84.49
16777;BME280;8505;49.456;8.164;2023-03-30T06:38:42;99172.84;;;12.41;84.97
16777;BME280;8505;49.456;8.164;2023-03-30T06:41:10;99172.44;;;12.37;84.82
16777;BME280;8505;49.456;8.164;2023-03-30T06:43:38;99162.84;;;12.43;84.37
16777;BME280;8505;49.456;8.164;2023-03-30T06:46:07;99151.84;;;12.46;83.95
16777;BME280;8505;49.456;8.164;2023-03-30T06:48:36;99149.19;;;12.46;83.59
16777;BME280;8505;49.456;8.164;2023-03-30T06:51:05;99149.59;;;12.49;83.88
16777;BME280;8505;49.456;8.164;2023-03-30T06:53:35;99165.56;;;12.56;83.65
16777;BME280;8505;49.456;8.164;2023-03-30T06:56:03;99155.09;;;12.48;83.97
16777;BME280;8505;49.456;8.164;2023-03-30T06:58:31;99167.03;;;12.59;84.00
16777;BME280;8505;49.456;8.164;2023-03-30T07:01:07;99162.50;;;12.59;83.63
16777;BME280;8505;49.456;8.164;2023-03-30T07:03:36;99160.28;;;12.63;83.86
16777;BME280;8505;49.456;8.164;2023-03-30T07:06:04;99158.84;;;12.60;84.25
16777;BME280;8505;49.456;8.164;2023-03-30T07:08:35;99151.88;;;12.59;84.49
16777;BME280;8505;49.456;8.164;2023-03-30T07:11:03;99162.75;;;12.64;84.23
16777;BME280;8505;49.456;8.164;2023-03-30T07:13:32;99155.19;;;12.68;83.28
16777;BME280;8505;49.456;8.164;2023-03-30T07:16:00;99175.84;;;12.72;83.43
16777;BME280;8505;49.456;8.164;2023-03-30T07:18:28;99160.94;;;12.78;83.99
16777;BME280;8505;49.456;8.164;2023-03-30T07:20:56;99139.72;;;12.91;82.64
16777;BME280;8505;49.456;8.164;2023-03-30T07:23:24;99145.06;;;12.97;82.59
16777;BME280;8505;49.456;8.164;2023-03-30T07:25:53;99156.31;;;13.00;82.46
16777;BME280;8505;49.456;8.164;2023-03-30T07:28:21;99160.63;;;13.01;82.59
16777;BME280;8505;49.456;8.164;2023-03-30T07:30:49;99166.75;;;13.01;82.60
16777;BME280;8505;49.456;8.164;2023-03-30T07:33:18;99159.63;;;13.08;83.47
16777;BME280;8505;49.456;8.164;2023-03-30T07:35:47;99156.72;;;13.03;83.31
16777;BME280;8505;49.456;8.164;2023-03-30T07:38:15;99130.13;;;13.03;83.40
16777;BME280;8505;49.456;8.164;2023-03-30T07:40:44;99149.78;;;13.09;82.18
16777;BME280;8505;49.456;8.164;2023-03-30T07:43:13;99177.81;;;13.11;82.35
16777;BME280;8505;49.456;8.164;2023-03-30T07:45:41;99173.97;;;13.20;82.75
16777;BME280;8505;49.456;8.164;2023-03-30T07:48:09;99163.09;;;13.15;83.13
16777;BME280;8505;49.456;8.164;2023-03-30T07:50:37;99155.34;;;13.14;81.96
16777;BME280;8505;49.456;8.164;2023-03-30T07:53:04;99156.38;;;13.19;82.19
16777;BME280;8505;49.456;8.164;2023-03-30T07:55:33;99152.50;;;13.22;81.61
16777;BME280;8505;49.456;8.164;2023-03-30T07:58:01;99153.50;;;13.27;82.19
16777;BME280;8505;49.456;8.164;2023-03-30T08:00:31;99170.09;;;13.23;81.88
16777;BME280;8505;49.456;8.164;2023-03-30T08:03:01;99159.47;;;13.29;80.68
16777;BME280;8505;49.456;8.164;2023-03-30T08:05:29;99165.63;;;13.50;80.41
16777;BME280;8505;49.456;8.164;2023-03-30T08:07:56;99169.88;;;14.10;79.00
16777;BME280;8505;49.456;8.164;2023-03-30T08:10:24;99173.34;;;14.17;78.00
16777;BME280;8505;49.456;8.164;2023-03-30T08:12:52;99146.03;;;14.41;76.67
16777;BME280;8505;49.456;8.164;2023-03-30T08:15:20;99169.41;;;14.39;76.57
16777;BME280;8505;49.456;8.164;2023-03-30T08:17:49;99182.78;;;14.77;75.68
16777;BME280;8505;49.456;8.164;2023-03-30T08:20:17;99185.84;;;15.19;75.30
16777;BME280;8505;49.456;8.164;2023-03-30T08:22:45;99175.06;;;15.38;73.82
16777;BME280;8505;49.456;8.164;2023-03-30T08:25:13;99169.16;;;15.86;72.98
16777;BME280;8505;49.456;8.164;2023-03-30T08:27:41;99171.03;;;15.29;72.74
16777;BME280;8505;49.456;8.164;2023-03-30T08:30:10;99199.84;;;15.52;73.47
16777;BME280;8505;49.456;8.164;2023-03-30T08:32:38;99205.84;;;15.97;71.24
16777;BME280;8505;49.456;8.164;2023-03-30T08:35:08;99213.25;;;15.32;74.38
16777;BME280;8505;49.456;8.164;2023-03-30T08:37:36;99201.16;;;14.98;76.03
16777;BME280;8505;49.456;8.164;2023-03-30T08:40:05;99168.72;;;15.64;73.41
16777;BME280;8505;49.456;8.164;2023-03-30T08:42:46;99171.81;;;15.86;72.97
16777;BME280;8505;49.456;8.164;2023-03-30T08:45:18;99169.16;;;16.29;70.84
16777;BME280;8505;49.456;8.164;2023-03-30T08:47:47;99176.03;;;16.37;69.34
16777;BME280;8505;49.456;8.164;2023-03-30T08:50:23;99141.59;;;15.92;67.03
16777;BME280;8505;49.456;8.164;2023-03-30T08:52:55;99134.94;;;15.76;68.17
16777;BME280;8505;49.456;8.164;2023-03-30T08:55:26;99147.06;;;15.79;66.25
16777;BME280;8505;49.456;8.164;2023-03-30T08:57:58;99153.56;;;15.83;63.26
16777;BME280;8505;49.456;8.164;2023-03-30T09:00:34;99147.09;;;15.97;62.91
16777;BME280;8505;49.456;8.164;2023-03-30T09:03:12;99129.25;;;15.73;63.30
16777;BME280;8505;49.456;8.164;2023-03-30T09:05:47;99124.22;;;15.58;62.80
16777;BME280;8505;49.456;8.164;2023-03-30T09:08:19;99121.84;;;15.44;63.25
16777;BME280;8505;49.456;8.164;2023-03-30T09:10:51;99138.16;;;15.85;63.12
16777;BME280;8505;49.456;8.164;2023-03-30T09:13:25;99150.78;;;15.96;61.92
16777;BME280;8505;49.456;8.164;2023-03-30T09:15:58;99145.06;;;15.93;59.73
16777;BME280;8505;49.456;8.164;2023-03-30T09:18:31;99148.81;;;16.28;58.80
16777;BME280;8505;49.456;8.164;2023-03-30T09:21:03;99152.06;;;16.67;59.01
16777;BME280;8505;49.456;8.164;2023-03-30T09:23:32;99121.28;;;16.28;58.11
16777;BME280;8505;49.456;8.164;2023-03-30T09:26:09;99141.88;;;16.02;59.63
16777;BME280;8505;49.456;8.164;2023-03-30T09:28:45;99146.06;;;15.73;59.66
16777;BME280;8505;49.456;8.164;2023-03-30T09:31:17;99135.56;;;15.97;59.14
16777;BME280;8505;49.456;8.164;2023-03-30T09:33:54;99132.81;;;15.85;59.50
16777;BME280;8505;49.456;8.164;2023-03-30T09:36:30;99129.34;;;15.60;59.09
16777;BME280;8505;49.456;8.164;2023-03-30T09:39:08;99142.00;;;15.39;59.44
16777;BME280;8505;49.456;8.164;2023-03-30T09:41:46;99133.66;;;15.86;58.80
16777;BME280;8505;49.456;8.164;2023-03-30T09:44:21;99149.84;;;16.27;58.28
16777;BME280;8505;49.456;8.164;2023-03-30T09:46:52;99154.22;;;16.22;59.20
16777;BME280;8505;49.456;8.164;2023-03-30T09:49:26;99142.31;;;16.17;58.69
16777;BME280;8505;49.456;8.164;2023-03-30T09:52:00;99152.44;;;15.72;59.97
16777;BME280;8505;49.456;8.164;2023-03-30T09:54:36;99148.91;;;15.54;60.83
16777;BME280;8505;49.456;8.164;2023-03-30T09:57:04;99129.34;;;15.60;59.85
16777;BME280;8505;49.456;8.164;2023-03-30T09:59:33;99158.16;;;15.45;61.24
16777;BME280;8505;49.456;8.164;2023-03-30T10:02:16;99150.88;;;15.33;61.44
16777;BME280;8505;49.456;8.164;2023-03-30T10:04:54;99161.78;;;15.25;61.83
16777;BME280;8505;49.456;8.164;2023-03-30T10:07:26;99162.66;;;15.51;62.35
16777;BME280;8505;49.456;8.164;2023-03-30T10:09:54;99173.66;;;15.36;62.52
16777;BME280;8505;49.456;8.164;2023-03-30T10:12:24;99166.16;;;15.20;62.84
16777;BME280;8505;49.456;8.164;2023-03-30T10:14:53;99186.88;;;15.24;63.26
16777;BME280;8505;49.456;8.164;2023-03-30T10:17:23;99188.19;;;15.40;62.38
16777;BME280;8505;49.456;8.164;2023-03-30T10:19:53;99176.78;;;15.26;63.29
16777;BME280;8505;49.456;8.164;2023-03-30T10:22:49;99187.38;;;15.39;62.92
16777;BME280;8505;49.456;8.164;2023-03-30T10:25:20;99180.06;;;15.28;63.10
16777;BME280;8505;49.456;8.164;2023-03-30T10:27:49;99183.03;;;15.07;63.94
16777;BME280;8505;49.456;8.164;2023-03-30T10:30:20;99179.03;;;15.29;63.28
16777;BME280;8505;49.456;8.164;2023-03-30T10:32:49;99171.19;;;15.34;63.47
16777;BME280;8505;49.456;8.164;2023-03-30T10:35:21;99193.22;;;15.23;63.71
16777;BME280;8505;49.456;8.164;2023-03-30T10:37:52;99190.34;;;15.18;63.82
16777;BME280;8505;49.456;8.164;2023-03-30T10:40:25;99177.50;;;15.40;63.37
16777;BME280;8505;49.456;8.164;2023-03-30T10:42:56;99187.31;;;15.53;63.57
16777;BME280;8505;49.456;8.164;2023-03-30T10:45:27;99183.41;;;15.49;63.07
16777;BME280;8505;49.456;8.164;2023-03-30T10:48:08;99173.69;;;15.86;62.48
16777;BME280;8505;49.456;8.164;2023-03-30T10:50:44;99166.03;;;16.69;60.91
16777;BME280;8505;49.456;8.164;2023-03-30T10:53:29;99173.81;;;16.88;59.32
16777;BME280;8505;49.456;8.164;2023-03-30T10:56:02;99175.53;;;16.46;60.09
16777;BME280;8505;49.456;8.164;2023-03-30T10:58:42;99196.31;;;16.26;61.36
16777;BME280;8505;49.456;8.164;2023-03-30T11:01:18;99166.81;;;16.87;59.35
16777;BME280;8505;49.456;8.164;2023-03-30T11:03:52;99172.66;;;17.26;58.90
16777;BME280;8505;49.456;8.164;2023-03-30T11:06:25;99183.47;;;16.53;59.49
16777;BME280;8505;49.456;8.164;2023-03-30T11:08:59;99191.78;;;16.45;58.82
16777;BME280;8505;49.456;8.164;2023-03-30T11:11:32;99191.63;;;16.58;58.69
16777;BME280;8505;49.456;8.164;2023-03-30T11:14:05;99184.81;;;16.44;59.05
16777;BME280;8505;49.456;8.164;2023-03-30T11:16:39;99185.97;;;16.30;59.72
16777;BME280;8505;49.456;8.164;2023-03-30T11:19:15;99171.97;;;17.30;57.45
16777;BME280;8505;49.456;8.164;2023-03-30T11:21:50;99171.72;;;17.62;56.36
16777;BME280;8505;49.456;8.164;2023-03-30T11:24:26;99167.50;;;18.47;54.24
16777;BME280;8505;49.456;8.164;2023-03-30T11:26:58;99175.13;;;17.69;55.31
16777;BME280;8505;49.456;8.164;2023-03-30T11:29:33;99184.81;;;17.82;54.11
16777;BME280;8505;49.456;8.164;2023-03-30T11:32:14;99169.44;;;17.89;53.01
16777;BME280;8505;49.456;8.164;2023-03-30T11:34:52;99147.34;;;18.56;51.73
16777;BME280;8505;49.456;8.164;2023-03-30T11:37:26;99157.63;;;18.88;50.32
16777;BME280;8505;49.456;8.164;2023-03-30T11:40:01;99173.84;;;18.93;49.64
16777;BME280;8505;49.456;8.164;2023-03-30T11:42:36;99158.91;;;18.57;50.58
16777;BME280;8505;49.456;8.164;2023-03-30T11:45:17;99162.59;;;18.96;49.29
16777;BME280;8505;49.456;8.164;2023-03-30T11:47:59;99165.66;;;18.48;48.95
16777;BME280;8505;49.456;8.164;2023-03-30T11:50:43;99157.81;;;18.58;47.59
16777;BME280;8505;49.456;8.164;2023-03-30T11:53:22;99163.00;;;18.36;48.13
16777;BME280;8505;49.456;8.164;2023-03-30T11:56:01;99163.84;;;18.77;47.16
16777;BME280;8505;49.456;8.164;2023-03-30T11:58:34;99161.72;;;19.07;46.37
16777;BME280;8505;49.456;8.164;2023-03-30T12:01:29;99169.69;;;19.30;45.21
16777;BME280;8505;49.456;8.164;2023-03-30T12:04:05;99150.53;;;19.72;44.00
16777;BME280;8505;49.456;8.164;2023-03-30T12:06:37;99162.56;;;19.53;44.12
16777;BME280;8505;49.456;8.164;2023-03-30T12:09:24;99170.81;;;19.34;43.84
16777;BME280;8505;49.456;8.164;2023-03-30T12:12:02;99167.22;;;19.12;43.78
16777;BME280;8505;49.456;8.164;2023-03-30T12:14:48;99164.25;;;18.97;44.31
16777;BME280;8505;49.456;8.164;2023-03-30T12:17:27;99170.72;;;19.58;44.10
16777;BME280;8505;49.456;8.164;2023-03-30T12:19:58;99161.19;;;19.05;43.32
16777;BME280;8505;49.456;8.164;2023-03-30T12:22:34;99175.50;;;19.11;43.04
16777;BME280;8505;49.456;8.164;2023-03-30T12:25:14;99178.25;;;18.99;43.85
16777;BME280;8505;49.456;8.164;2023-03-30T12:27:56;99160.41;;;18.41;45.61
16777;BME280;8505;49.456;8.164;2023-03-30T12:30:27;99181.41;;;18.33;45.92
16777;BME280;8505;49.456;8.164;2023-03-30T12:33:01;99190.81;;;17.65;52.11
16777;BME280;8505;49.456;8.164;2023-03-30T12:35:57;99218.69;;;16.68;57.05
16777;BME280;8505;49.456;8.164;2023-03-30T12:38:27;99200.44;;;16.04;62.66
16777;BME280;8505;49.456;8.164;2023-03-30T12:41:06;99210.34;;;16.40;63.78
16777;BME280;8505;49.456;8.164;2023-03-30T12:43:58;99178.50;;;16.38;61.61
16777;BME280;8505;49.456;8.164;2023-03-30T12:46:33;99166.13;;;16.62;60.11
16777;BME280;8505;49.456;8.164;2023-03-30T12:49:08;99171.66;;;16.79;54.26
16777;BME280;8505;49.456;8.164;2023-03-30T12:51:51;99160.72;;;17.40;53.70
16777;BME280;8505;49.456;8.164;2023-03-30T12:54:47;99163.47;;;17.63;51.84
16777;BME280;8505;49.456;8.164;2023-03-30T12:57:30;99149.03;;;17.76;49.24
16777;BME280;8505;49.456;8.164;2023-03-30T13:03:33;99127.84;;;18.89;48.06
16777;BME280;8505;49.456;8.164;2023-03-30T13:06:06;99139.44;;;18.38;46.35
16777;BME280;8505;49.456;8.164;2023-03-30T13:08:38;99137.72;;;18.32;44.68
16777;BME280;8505;49.456;8.164;2023-03-30T13:11:12;99148.72;;;18.59;45.10
16777;BME280;8505;49.456;8.164;2023-03-30T13:13:47;99156.00;;;18.87;43.95
16777;BME280;8505;49.456;8.164;2023-03-30T13:16:46;99136.50;;;18.63;42.83
16777;BME280;8505;49.456;8.164;2023-03-30T13:19:24;99145.38;;;18.92;42.85
16777;BME280;8505;49.456;8.164;2023-03-30T13:22:02;99138.84;;;18.88;42.81
16777;BME280;8505;49.456;8.164;2023-03-30T13:24:36;99151.75;;;19.48;42.26
16777;BME280;8505;49.456;8.164;2023-03-30T13:27:20;99148.44;;;19.12;41.69
16777;BME280;8505;49.456;8.164;2023-03-30T13:29:51;99165.97;;;18.75;40.00
16777;BME280;8505;49.456;8.164;2023-03-30T13:32:26;99147.19;;;18.75;39.22
16777;BME280;8505;49.456;8.164;2023-03-30T13:35:25;99147.38;;;19.13;39.33
16777;BME280;8505;49.456;8.164;2023-03-30T13:41:13;99144.88;;;18.95;39.35
16777;BME280;8505;49.456;8.164;2023-03-30T13:43:59;99157.06;;;18.86;40.68
16777;BME280;8505;49.456;8.164;2023-03-30T13:46:32;99152.28;;;18.76;41.40
16777;BME280;8505;49.456;8.164;2023-03-30T13:49:10;99144.81;;;18.38;42.17